Time;durP1;ratioP1;P1;durP2;ratioP2;P2;SDS_P1;SDS_P2;PMS_P1;PMS_P2;Temp;Humidity;BMP_temperature;BMP_pressure;BME280_temperature;BME280_humidity;BME280_pressure;Samples;Min_cycle;Max_cycle;Signal;HPM_P1;HPM_P2
2023/01/18 00:01:19;;;;;;;;;;;;;;;0.06;77.83;98639.78;4188275;28;20015;-62
2023/01/18 00:03:21;;;;;;;;;;;;;;;0.06;77.84;98641.63;4187659;28;20008;-61
2023/01/18 00:05:22;;;;;;;;;;;;;;;0.05;77.83;98639.97;4188825;28;20450;-61
2023/01/18 00:07:25;;;;;;;;;;;;;;;0.05;78.00;98632.84;4176104;28;20031;-63
2023/01/18 00:09:26;;;;;;;;;;;;;;;0.06;77.98;98634.50;4187332;28;20015;-60
2023/01/18 00:11:30;;;;;;;;;;;;;;;0.05;77.98;98624.88;4188154;28;20022;-61
2023/01/18 00:13:32;;;;;;;;;;;;;;;0.03;78.04;98624.19;4187561;28;20035;-62
2023/01/18 00:15:34;;;;;;;;;;;;;;;0.03;78.12;98624.19;4188840;28;20027;-63
2023/01/18 00:17:46;;;;;;;;;;;;;;;0.03;78.11;98615.41;4186709;28;19963;-63
2023/01/18 00:19:48;;;;;;;;;;;;;;;0.03;78.08;98626.84;4188431;28;20038;-62
2023/01/18 00:21:53;;;;;;;;;;;;;;;0.02;78.05;98619.03;4186428;28;20517;-62
2023/01/18 00:23:55;;;;;;;;;;;;;;;-0.04;77.79;98618.72;4188592;28;20501;-60
2023/01/18 00:25:59;;;;;;;;;;;;;;;-0.05;78.29;98618.88;4188642;28;20023;-60
2023/01/18 00:28:02;;;;;;;;;;;;;;;-0.04;78.54;98626.66;4187397;28;20035;-62
2023/01/18 00:30:05;;;;;;;;;;;;;;;-0.03;78.30;98627.53;4186970;28;20023;-63
2023/01/18 00:32:07;;;;;;;;;;;;;;;-0.05;78.23;98621.53;4191225;28;20011;-62
2023/01/18 00:34:10;;;;;;;;;;;;;;;-0.04;78.31;98626.66;4219562;28;20030;-61
2023/01/18 00:36:12;;;;;;;;;;;;;;;-0.04;78.39;98625.84;4204301;28;20006;-62
2023/01/18 00:38:14;;;;;;;;;;;;;;;-0.06;78.33;98628.66;4190159;28;20365;-61
2023/01/18 00:40:16;;;;;;;;;;;;;;;-0.07;78.08;98615.56;4188380;28;20011;-62
2023/01/18 00:44:38;;;;;;;;;;;;;;;-0.12;78.35;98621.34;4188204;28;20020;-63
2023/01/18 00:46:40;;;;;;;;;;;;;;;-0.13;78.48;98624.97;4186999;28;20024;-62
2023/01/18 00:48:43;;;;;;;;;;;;;;;-0.14;78.43;98627.78;4187421;28;20028;-62
2023/01/18 00:50:44;;;;;;;;;;;;;;;-0.14;78.69;98623.34;4187461;28;20019;-58
2023/01/18 00:52:46;;;;;;;;;;;;;;;-0.12;78.91;98636.44;4197567;28;20018;-63
2023/01/18 00:54:48;;;;;;;;;;;;;;;-0.10;78.70;98632.63;4204184;28;20023;-63
2023/01/18 00:56:50;;;;;;;;;;;;;;;-0.07;78.53;98642.91;4200803;28;20094;-61
2023/01/18 00:58:52;;;;;;;;;;;;;;;-0.08;78.14;98641.28;4187758;28;20020;-60
2023/01/18 01:00:56;;;;;;;;;;;;;;;-0.11;77.92;98636.28;4187633;28;20047;-63
2023/01/18 01:02:58;;;;;;;;;;;;;;;-0.14;78.07;98631.28;4186235;28;20042;-63
2023/01/18 01:07:19;;;;;;;;;;;;;;;-0.16;78.25;98649.19;4187111;28;20052;-60
2023/01/18 01:09:22;;;;;;;;;;;;;;;-0.14;78.50;98657.84;4187641;28;20023;-61
2023/01/18 01:11:24;;;;;;;;;;;;;;;-0.13;78.53;98661.31;4187543;28;20011;-60
2023/01/18 01:27:23;;;;;;;;;;;;;;;-0.14;79.41;98697.63;4186752;28;20019;-61
2023/01/18 01:29:25;;;;;;;;;;;;;;;-0.15;79.54;98701.25;4187632;28;20833;-61
2023/01/18 01:31:27;;;;;;;;;;;;;;;-0.14;79.50;98702.94;4187243;28;20032;-63
2023/01/18 01:33:30;;;;;;;;;;;;;;;-0.14;79.58;98704.75;4187107;28;20362;-62
2023/01/18 01:35:32;;;;;;;;;;;;;;;-0.12;79.52;98703.59;4187087;28;20453;-63
2023/01/18 01:37:34;;;;;;;;;;;;;;;-0.13;79.22;98704.59;4187598;28;20043;-64
2023/01/18 01:39:36;;;;;;;;;;;;;;;-0.11;79.35;98707.06;4187145;28;20020;-62
2023/01/18 01:41:38;;;;;;;;;;;;;;;-0.11;79.39;98705.28;4186670;28;20402;-63
2023/01/18 01:43:42;;;;;;;;;;;;;;;-0.12;79.26;98708.91;4186753;28;20019;-63
2023/01/18 01:45:44;;;;;;;;;;;;;;;-0.13;79.24;98707.22;4186368;28;20366;-60
2023/01/18 01:47:46;;;;;;;;;;;;;;;-0.15;79.46;98714.53;4185807;28;20314;-63
2023/01/18 01:49:49;;;;;;;;;;;;;;;-0.14;79.59;98718.88;4187041;28;20445;-61
2023/01/18 01:51:52;;;;;;;;;;;;;;;-0.12;79.55;98722.19;4183876;28;19971;-62
2023/01/18 01:53:54;;;;;;;;;;;;;;;-0.12;79.36;98721.34;4185313;28;20012;-62
2023/01/18 01:55:56;;;;;;;;;;;;;;;-0.11;79.37;98723.00;4187672;28;20073;-63
2023/01/18 01:57:59;;;;;;;;;;;;;;;-0.13;79.38;98727.66;4186604;28;20015;-63
2023/01/18 02:00:01;;;;;;;;;;;;;;;-0.15;79.41;98727.81;4186647;28;20011;-62
2023/01/18 02:02:03;;;;;;;;;;;;;;;-0.19;79.27;98735.25;4186113;28;19964;-62
2023/01/18 02:04:05;;;;;;;;;;;;;;;-0.22;79.22;98732.06;4187274;28;20008;-63
2023/01/18 02:06:10;;;;;;;;;;;;;;;-0.22;79.45;98732.06;4187339;28;20023;-63
2023/01/18 02:08:12;;;;;;;;;;;;;;;-0.21;79.66;98731.09;4185835;28;20028;-63
2023/01/18 02:10:14;;;;;;;;;;;;;;;-0.21;79.86;98723.94;4185628;28;20134;-63
2023/01/18 02:12:16;;;;;;;;;;;;;;;-0.20;79.65;98716.84;4185529;28;20017;-63
2023/01/18 02:14:18;;;;;;;;;;;;;;;-0.20;79.75;98727.44;4187575;28;20427;-62
2023/01/18 02:16:22;;;;;;;;;;;;;;;-0.19;79.47;98732.59;4187130;28;20023;-63
2023/01/18 02:18:24;;;;;;;;;;;;;;;-0.19;79.58;98726.44;4186159;28;20027;-62
2023/01/18 02:20:40;;;;;;;;;;;;;;;-0.18;79.76;98722.81;4185309;28;20469;-62
2023/01/18 02:22:51;;;;;;;;;;;;;;;-0.14;79.74;98715.34;4184785;28;19935;-63
2023/01/18 02:25:01;;;;;;;;;;;;;;;-0.10;79.80;98712.22;4187300;28;19924;-62
2023/01/18 02:27:06;;;;;;;;;;;;;;;-0.08;79.58;98706.75;4186011;28;20020;-60
2023/01/18 02:29:12;;;;;;;;;;;;;;;-0.10;79.44;98714.88;4186871;28;20039;-63
2023/01/18 02:31:15;;;;;;;;;;;;;;;-0.12;79.15;98724.84;4185798;28;20450;-63
2023/01/18 02:33:18;;;;;;;;;;;;;;;-0.14;79.24;98723.31;4186283;28;20027;-62
2023/01/18 02:35:20;;;;;;;;;;;;;;;-0.15;79.56;98717.19;4186444;28;20012;-62
2023/01/18 02:37:25;;;;;;;;;;;;;;;-0.11;79.70;98717.69;4185845;28;20019;-63
2023/01/18 02:39:30;;;;;;;;;;;;;;;-0.11;79.52;98726.50;4185814;28;20116;-62
2023/01/18 02:48:31;;;;;;;;;;;;;;;-0.14;79.46;98731.28;4185523;28;20020;-63
2023/01/18 02:50:33;;;;;;;;;;;;;;;-0.16;79.47;98727.97;4185500;28;20462;-61
2023/01/18 02:52:37;;;;;;;;;;;;;;;-0.18;79.36;98730.75;4184660;28;20033;-62
2023/01/18 02:54:39;;;;;;;;;;;;;;;-0.17;79.32;98729.78;4186079;28;20024;-62
2023/01/18 02:56:42;;;;;;;;;;;;;;;-0.16;79.62;98733.25;4184545;28;20023;-62
2023/01/18 02:58:44;;;;;;;;;;;;;;;-0.18;79.44;98733.41;4186035;28;20019;-61
2023/01/18 03:00:47;;;;;;;;;;;;;;;-0.18;79.65;98728.13;4186087;28;20035;-62
2023/01/18 03:02:50;;;;;;;;;;;;;;;-0.20;79.64;98730.94;4185765;28;20027;-62
2023/01/18 03:04:54;;;;;;;;;;;;;;;-0.18;79.85;98728.13;4186316;28;19932;-62
2023/01/18 03:06:57;;;;;;;;;;;;;;;-0.19;79.86;98729.09;4185329;28;20011;-61
2023/01/18 03:08:59;;;;;;;;;;;;;;;-0.17;79.70;98731.59;4184090;28;20561;-61
2023/01/18 03:11:02;;;;;;;;;;;;;;;-0.15;79.70;98730.44;4185941;28;20027;-63
2023/01/18 03:13:05;;;;;;;;;;;;;;;-0.15;79.61;98733.09;4185017;28;20019;-62
2023/01/18 03:15:11;;;;;;;;;;;;;;;-0.15;79.56;98730.44;4185877;28;20030;-60
2023/01/18 03:17:14;;;;;;;;;;;;;;;-0.16;79.48;98728.78;4184653;28;20048;-61
2023/01/18 03:21:40;;;;;;;;;;;;;;;-0.17;79.85;98721.81;4184571;28;19959;-61
2023/01/18 03:23:41;;;;;;;;;;;;;;;-0.16;79.90;98733.25;4189228;28;20023;-60
2023/01/18 03:25:44;;;;;;;;;;;;;;;-0.15;80.14;98733.09;4189183;28;20543;-59
2023/01/18 03:34:48;;;;;;;;;;;;;;;-0.04;80.39;98732.81;4188922;28;20022;-60
2023/01/18 03:36:51;;;;;;;;;;;;;;;-0.05;80.29;98740.94;4187937;28;20351;-61
2023/01/18 03:38:54;;;;;;;;;;;;;;;-0.04;80.24;98734.66;4188263;28;20012;-61
2023/01/18 03:40:56;;;;;;;;;;;;;;;-0.03;80.30;98729.19;4188755;28;20025;-60
2023/01/18 03:42:59;;;;;;;;;;;;;;;-0.03;80.35;98731.03;4187258;28;20024;-61
2023/01/18 03:45:03;;;;;;;;;;;;;;;-0.01;80.26;98732.50;4188488;28;20424;-62
2023/01/18 03:47:05;;;;;;;;;;;;;;;-0.03;80.20;98728.38;4187888;28;19971;-63
2023/01/18 03:49:07;;;;;;;;;;;;;;;-0.05;80.15;98733.84;4188635;28;20022;-61
2023/01/18 03:51:12;;;;;;;;;;;;;;;-0.06;80.05;98723.38;4188321;28;20007;-62
2023/01/18 03:53:16;;;;;;;;;;;;;;;-0.08;80.25;98728.00;4187586;28;20031;-61
2023/01/18 03:55:20;;;;;;;;;;;;;;;-0.07;80.33;98730.50;4188200;28;20016;-61
2023/01/18 03:57:24;;;;;;;;;;;;;;;-0.07;80.39;98733.13;4187797;28;20015;-59
2023/01/18 03:59:26;;;;;;;;;;;;;;;-0.07;80.52;98735.78;4188441;28;20552;-62
2023/01/18 04:01:28;;;;;;;;;;;;;;;-0.07;80.39;98735.78;4188001;28;20568;-61
2023/01/18 04:03:30;;;;;;;;;;;;;;;-0.04;80.56;98739.97;4188720;28;20019;-62
2023/01/18 04:05:33;;;;;;;;;;;;;;;-0.03;80.69;98742.47;4187857;28;20024;-61
2023/01/18 04:07:37;;;;;;;;;;;;;;;0.01;80.69;98736.84;4188403;28;19924;-62
2023/01/18 04:09:39;;;;;;;;;;;;;;;0.02;80.54;98734.03;4188538;28;20011;-61
2023/01/18 04:11:41;;;;;;;;;;;;;;;0.04;80.51;98733.88;4187341;28;20024;-61
2023/01/18 04:13:43;;;;;;;;;;;;;;;0.03;80.37;98740.16;4188941;28;20019;-62
2023/01/18 04:15:44;;;;;;;;;;;;;;;0.04;80.45;98736.53;4189101;28;20540;-61
2023/01/18 04:17:48;;;;;;;;;;;;;;;0.03;80.24;98734.84;4187524;28;20039;-61
2023/01/18 04:19:50;;;;;;;;;;;;;;;0.03;80.22;98734.84;4188891;28;20028;-61
2023/01/18 04:21:52;;;;;;;;;;;;;;;0.02;80.23;98728.72;4186638;28;20541;-61
2023/01/18 04:23:55;;;;;;;;;;;;;;;0.06;80.46;98730.03;4188345;28;20011;-61
2023/01/18 04:25:57;;;;;;;;;;;;;;;0.06;80.21;98730.03;4189695;28;20011;-62
2023/01/18 04:27:59;;;;;;;;;;;;;;;0.08;80.09;98729.88;4187723;28;19924;-62
2023/01/18 04:30:01;;;;;;;;;;;;;;;0.07;80.35;98726.41;4187762;28;20035;-62
2023/01/18 04:32:04;;;;;;;;;;;;;;;0.06;80.31;98738.00;4187943;28;20377;-61
2023/01/18 04:34:06;;;;;;;;;;;;;;;0.06;80.11;98738.00;4188907;28;20032;-62
2023/01/18 04:36:08;;;;;;;;;;;;;;;0.05;80.04;98740.81;4187767;28;20027;-61
2023/01/18 04:38:10;;;;;;;;;;;;;;;0.02;80.06;98741.13;4186837;28;20032;-60
2023/01/18 04:40:14;;;;;;;;;;;;;;;0.01;80.41;98742.97;4187630;28;20011;-61
2023/01/18 04:42:16;;;;;;;;;;;;;;;0.03;80.44;98745.47;4188092;28;20027;-62
2023/01/18 04:44:18;;;;;;;;;;;;;;;0.03;80.61;98738.31;4188584;28;20024;-62
2023/01/18 04:46:20;;;;;;;;;;;;;;;0.05;80.55;98743.47;4187244;28;20044;-63
2023/01/18 04:48:22;;;;;;;;;;;;;;;0.04;80.42;98741.84;4187733;28;20051;-62
2023/01/18 04:50:24;;;;;;;;;;;;;;;0.04;80.30;98740.00;4187817;28;20022;-61
2023/01/18 04:52:26;;;;;;;;;;;;;;;0.07;80.51;98741.50;4186804;28;20007;-61
2023/01/18 04:54:29;;;;;;;;;;;;;;;0.08;80.58;98735.19;4187782;28;20023;-62
2023/01/18 04:56:32;;;;;;;;;;;;;;;0.08;80.54;98740.50;4186102;28;20024;-61
2023/01/18 04:58:34;;;;;;;;;;;;;;;0.10;80.58;98735.88;4186337;28;20461;-62
2023/01/18 05:00:38;;;;;;;;;;;;;;;0.11;80.62;98745.50;4189070;28;20024;-62
2023/01/18 05:02:40;;;;;;;;;;;;;;;0.11;80.58;98745.50;4187807;28;20011;-62
2023/01/18 05:04:43;;;;;;;;;;;;;;;0.09;80.59;98750.97;4187516;28;20019;-61
2023/01/18 05:06:47;;;;;;;;;;;;;;;0.08;80.67;98749.31;4187917;28;20023;-62
2023/01/18 05:08:49;;;;;;;;;;;;;;;0.09;80.74;98750.16;4187990;28;19940;-62
2023/01/18 05:10:51;;;;;;;;;;;;;;;0.10;81.01;98752.63;4187900;28;20363;-61
2023/01/18 05:12:55;;;;;;;;;;;;;;;0.12;81.08;98753.31;4187902;28;20036;-62
2023/01/18 05:14:57;;;;;;;;;;;;;;;0.13;81.04;98754.97;4187411;28;20020;-62
2023/01/18 05:16:58;;;;;;;;;;;;;;;0.15;81.04;98754.81;4187687;28;20322;-62
2023/01/18 05:19:00;;;;;;;;;;;;;;;0.16;80.93;98752.00;4187411;28;20004;-61
2023/01/18 05:21:02;;;;;;;;;;;;;;;0.17;80.88;98756.34;4186733;28;20035;-61
2023/01/18 05:23:09;;;;;;;;;;;;;;;0.16;80.94;98754.66;4187332;28;20044;-62
2023/01/18 05:25:11;;;;;;;;;;;;;;;0.16;81.05;98752.00;4187845;28;20027;-61
2023/01/18 05:27:13;;;;;;;;;;;;;;;0.17;81.14;98759.00;4186295;28;20028;-62
2023/01/18 05:29:17;;;;;;;;;;;;;;;0.18;81.11;98760.63;4187389;28;20450;-62
2023/01/18 05:31:19;;;;;;;;;;;;;;;0.20;81.31;98768.44;4187812;28;20024;-62
2023/01/18 05:33:22;;;;;;;;;;;;;;;0.24;81.28;98769.78;4188403;28;20007;-61
2023/01/18 05:35:24;;;;;;;;;;;;;;;0.26;81.28;98766.97;4187633;28;20011;-62
2023/01/18 05:37:26;;;;;;;;;;;;;;;0.26;81.13;98766.97;4187155;28;20020;-62
2023/01/18 05:39:28;;;;;;;;;;;;;;;0.28;81.11;98767.66;4187876;28;20035;-63
2023/01/18 05:41:30;;;;;;;;;;;;;;;0.27;81.24;98772.13;4187166;28;20015;-62
2023/01/18 05:43:31;;;;;;;;;;;;;;;0.28;81.30;98775.63;4184461;28;20066;-62
2023/01/18 05:45:35;;;;;;;;;;;;;;;0.31;81.28;98778.81;4187036;28;20024;-63
2023/01/18 05:47:37;;;;;;;;;;;;;;;0.33;81.31;98776.81;4186655;28;20030;-62
2023/01/18 05:49:39;;;;;;;;;;;;;;;0.34;81.28;98773.16;4187668;28;20457;-62
2023/01/18 05:51:41;;;;;;;;;;;;;;;0.37;80.98;98781.81;4186369;28;20048;-62
2023/01/18 05:53:42;;;;;;;;;;;;;;;0.35;81.06;98777.47;4187921;28;19999;-62
2023/01/18 05:55:52;;;;;;;;;;;;;;;0.33;80.94;98783.97;4188193;28;20011;-59
2023/01/18 05:57:54;;;;;;;;;;;;;;;0.34;80.95;98788.25;4186739;28;20070;-59
2023/01/18 05:59:56;;;;;;;;;;;;;;;0.35;81.04;98789.94;4187089;28;20039;-59
2023/01/18 06:01:59;;;;;;;;;;;;;;;0.37;81.04;98801.22;4185728;28;20035;-61
2023/01/18 06:04:01;;;;;;;;;;;;;;;0.39;81.02;98804.53;4186674;28;20007;-61
2023/01/18 06:06:03;;;;;;;;;;;;;;;0.40;80.97;98803.56;4186167;28;20028;-62
2023/01/18 06:08:05;;;;;;;;;;;;;;;0.42;80.97;98808.72;4185713;28;20011;-63
2023/01/18 06:10:08;;;;;;;;;;;;;;;0.42;80.87;98808.72;4186504;28;20436;-63
2023/01/18 06:12:10;;;;;;;;;;;;;;;0.43;80.88;98807.72;4185343;28;20056;-62
2023/01/18 06:14:12;;;;;;;;;;;;;;;0.44;80.80;98810.22;4187165;28;20392;-63
2023/01/18 06:16:14;;;;;;;;;;;;;;;0.44;80.71;98812.88;4187046;28;20035;-63
2023/01/18 06:18:17;;;;;;;;;;;;;;;0.44;80.68;98818.19;4186489;28;20051;-62
2023/01/18 06:20:19;;;;;;;;;;;;;;;0.47;80.77;98822.34;4186564;28;20036;-62
2023/01/18 06:22:21;;;;;;;;;;;;;;;0.51;80.83;98821.03;4185696;28;20003;-63
2023/01/18 06:24:23;;;;;;;;;;;;;;;0.52;80.57;98820.06;4186789;28;20871;-61
2023/01/18 06:26:25;;;;;;;;;;;;;;;0.52;80.60;98823.53;4186602;28;20031;-62
2023/01/18 06:28:27;;;;;;;;;;;;;;;0.54;80.65;98826.03;4185521;28;20045;-62
2023/01/18 06:30:29;;;;;;;;;;;;;;;0.56;80.59;98832.00;4183633;28;20445;-61
2023/01/18 06:32:31;;;;;;;;;;;;;;;0.57;80.50;98831.03;4185790;28;20008;-61
2023/01/18 06:34:35;;;;;;;;;;;;;;;0.56;80.64;98832.00;4187446;28;20349;-63
2023/01/18 06:36:37;;;;;;;;;;;;;;;0.58;80.47;98831.84;4186798;28;20035;-63
2023/01/18 06:38:40;;;;;;;;;;;;;;;0.56;80.60;98833.84;4186599;28;20028;-63
2023/01/18 06:40:42;;;;;;;;;;;;;;;0.56;80.72;98832.00;4186880;28;20035;-62
2023/01/18 06:42:46;;;;;;;;;;;;;;;0.58;80.65;98831.84;4186433;28;20019;-61
2023/01/18 06:44:48;;;;;;;;;;;;;;;0.58;80.66;98832.69;4187710;28;20454;-62
2023/01/18 06:46:50;;;;;;;;;;;;;;;0.62;80.75;98838.50;4187216;28;20008;-61
2023/01/18 06:48:52;;;;;;;;;;;;;;;0.66;80.63;98837.22;4187202;28;20043;-63
2023/01/18 06:50:57;;;;;;;;;;;;;;;0.69;80.48;98840.38;4187256;28;19933;-62
2023/01/18 06:52:59;;;;;;;;;;;;;;;0.67;80.45;98839.69;4186454;28;20635;-62
2023/01/18 06:55:01;;;;;;;;;;;;;;;0.65;80.23;98839.03;4187339;28;20011;-62
2023/01/18 06:57:02;;;;;;;;;;;;;;;0.65;80.18;98843.50;4189581;28;20579;-62
2023/01/18 06:59:04;;;;;;;;;;;;;;;0.66;80.15;98848.66;4191136;28;20011;-62
2023/01/18 07:01:06;;;;;;;;;;;;;;;0.67;80.42;98839.69;4191095;28;20007;-62
2023/01/18 07:03:09;;;;;;;;;;;;;;;0.68;80.41;98846.66;4188990;28;20016;-63
2023/01/18 07:05:11;;;;;;;;;;;;;;;0.70;80.33;98843.84;4190912;28;20504;-62
2023/01/18 07:07:14;;;;;;;;;;;;;;;0.70;80.51;98847.34;4189780;28;20023;-62
2023/01/18 07:09:16;;;;;;;;;;;;;;;0.73;80.48;98846.19;4189967;28;20364;-63
2023/01/18 07:11:18;;;;;;;;;;;;;;;0.74;80.22;98862.97;4189967;28;19967;-63
2023/01/18 07:13:20;;;;;;;;;;;;;;;0.74;80.21;98863.81;4203026;28;20015;-63
2023/01/18 07:15:22;;;;;;;;;;;;;;;0.75;80.14;98856.66;4187691;28;20346;-63
2023/01/18 07:17:24;;;;;;;;;;;;;;;0.76;80.35;98861.00;4187974;28;20027;-62
2023/01/18 07:19:26;;;;;;;;;;;;;;;0.77;80.19;98871.47;4187563;28;20031;-62
2023/01/18 07:21:29;;;;;;;;;;;;;;;0.77;80.07;98871.47;4186657;28;20007;-63
2023/01/18 07:23:33;;;;;;;;;;;;;;;0.76;80.03;98871.63;4185725;28;20449;-61
2023/01/18 07:25:35;;;;;;;;;;;;;;;0.77;80.17;98874.13;4188497;28;20035;-61
2023/01/18 07:27:37;;;;;;;;;;;;;;;0.78;80.18;98877.59;4187324;28;20011;-62
2023/01/18 07:29:39;;;;;;;;;;;;;;;0.79;80.44;98879.28;4189290;28;20056;-63
2023/01/18 07:31:41;;;;;;;;;;;;;;;0.80;80.12;98881.78;4187413;28;20028;-62
2023/01/18 07:33:43;;;;;;;;;;;;;;;0.82;80.34;98877.13;4189030;28;20020;-62
2023/01/18 07:35:45;;;;;;;;;;;;;;;0.85;80.12;98883.97;4189373;28;20880;-64
2023/01/18 07:37:48;;;;;;;;;;;;;;;0.87;79.90;98881.97;4189719;28;20059;-62
2023/01/18 07:39:51;;;;;;;;;;;;;;;0.89;79.96;98888.78;4188448;28;20047;-63
2023/01/18 07:41:53;;;;;;;;;;;;;;;0.92;79.68;98887.63;4187463;28;20016;-63
2023/01/18 07:43:55;;;;;;;;;;;;;;;0.93;79.63;98888.47;4189561;28;20019;-63
2023/01/18 07:45:57;;;;;;;;;;;;;;;0.94;79.57;98890.13;4190210;28;20012;-62
2023/01/18 07:47:59;;;;;;;;;;;;;;;0.95;79.51;98886.47;4187989;28;20015;-63
2023/01/18 07:50:01;;;;;;;;;;;;;;;0.98;79.30;98889.63;4188852;28;20026;-62
2023/01/18 07:52:04;;;;;;;;;;;;;;;0.99;79.35;98888.66;4188434;28;19981;-63
2023/01/18 07:54:06;;;;;;;;;;;;;;;0.99;79.36;98879.84;4188896;28;20457;-63
2023/01/18 07:56:11;;;;;;;;;;;;;;;1.00;79.41;98884.16;4190263;28;20016;-64
2023/01/18 07:58:13;;;;;;;;;;;;;;;1.00;79.29;98886.81;4188343;28;20030;-63
2023/01/18 08:00:16;;;;;;;;;;;;;;;1.00;79.31;98879.66;4188881;28;20024;-64
2023/01/18 08:02:18;;;;;;;;;;;;;;;1.01;79.17;98876.03;4187407;28;20007;-62
2023/01/18 08:04:20;;;;;;;;;;;;;;;1.04;79.05;98874.88;4189176;28;20018;-63
2023/01/18 08:06:23;;;;;;;;;;;;;;;1.07;79.04;98878.03;4187948;28;20396;-63
2023/01/18 08:08:26;;;;;;;;;;;;;;;1.10;78.78;98886.69;4188177;28;20027;-63
2023/01/18 08:10:28;;;;;;;;;;;;;;;1.08;78.44;98882.38;4188724;28;20458;-62
2023/01/18 08:12:32;;;;;;;;;;;;;;;1.12;78.58;98884.72;4187996;28;19936;-63
2023/01/18 08:14:34;;;;;;;;;;;;;;;1.11;78.52;98883.03;4188830;28;20023;-63
2023/01/18 08:16:35;;;;;;;;;;;;;;;1.12;78.59;98879.38;4188406;28;20343;-62
2023/01/18 08:18:38;;;;;;;;;;;;;;;1.11;78.49;98881.19;4188772;28;20028;-62
2023/01/18 08:20:42;;;;;;;;;;;;;;;1.12;78.56;98882.88;4188909;28;20039;-63
2023/01/18 08:22:44;;;;;;;;;;;;;;;1.14;78.44;98883.53;4187665;28;20031;-62
2023/01/18 08:24:46;;;;;;;;;;;;;;;1.15;78.56;98887.03;4189364;28;20465;-63
2023/01/18 08:26:48;;;;;;;;;;;;;;;1.15;78.34;98890.53;4188384;28;20369;-62
2023/01/18 08:28:51;;;;;;;;;;;;;;;1.16;78.59;98880.72;4189144;28;20009;-63
2023/01/18 08:30:53;;;;;;;;;;;;;;;1.17;78.56;98890.38;4188798;28;20027;-63
2023/01/18 08:32:56;;;;;;;;;;;;;;;1.16;78.50;98884.22;4188485;28;20044;-59
2023/01/18 08:34:59;;;;;;;;;;;;;;;1.18;78.57;98890.19;4188527;28;20122;-63
2023/01/18 08:37:01;;;;;;;;;;;;;;;1.19;78.66;98891.88;4189807;28;20023;-62
2023/01/18 08:39:03;;;;;;;;;;;;;;;1.19;78.47;98891.88;4205380;28;20043;-61
2023/01/18 08:41:05;;;;;;;;;;;;;;;1.21;78.61;98897.03;4205024;28;20032;-62
2023/01/18 08:43:07;;;;;;;;;;;;;;;1.21;78.69;98892.53;4204181;28;20010;-61
2023/01/18 08:45:11;;;;;;;;;;;;;;;1.24;78.59;98896.72;4205542;28;20027;-60
2023/01/18 08:47:14;;;;;;;;;;;;;;;1.24;78.41;98905.50;4204771;28;20421;-62
2023/01/18 08:49:16;;;;;;;;;;;;;;;1.24;78.43;98899.38;4205140;28;20023;-62
2023/01/18 08:51:19;;;;;;;;;;;;;;;1.24;78.51;98904.69;4204962;28;20024;-63
2023/01/18 08:53:21;;;;;;;;;;;;;;;1.26;78.46;98900.03;4204214;28;20364;-62
2023/01/18 08:55:23;;;;;;;;;;;;;;;1.26;78.61;98906.19;4205160;28;20363;-61
2023/01/18 08:57:26;;;;;;;;;;;;;;;1.29;78.52;98906.88;4204316;28;20036;-62
2023/01/18 08:59:28;;;;;;;;;;;;;;;1.30;78.35;98909.38;4204222;28;20023;-62
2023/01/18 09:01:32;;;;;;;;;;;;;;;1.32;78.34;98918.00;4204392;28;20011;-62
2023/01/18 09:03:34;;;;;;;;;;;;;;;1.35;78.17;98920.34;4204088;28;20014;-63
2023/01/18 09:05:36;;;;;;;;;;;;;;;1.37;78.13;98921.00;4205052;28;20019;-61
2023/01/18 09:07:38;;;;;;;;;;;;;;;1.38;78.16;98920.03;4219005;28;20380;-62
2023/01/18 09:09:40;;;;;;;;;;;;;;;1.40;77.86;98922.53;4204558;28;20022;-63
2023/01/18 09:11:42;;;;;;;;;;;;;;;1.40;78.16;98933.97;4203857;28;20023;-62
2023/01/18 09:13:44;;;;;;;;;;;;;;;1.41;78.04;98937.47;4204601;28;19929;-62
2023/01/18 09:15:46;;;;;;;;;;;;;;;1.41;78.03;98930.34;4204839;28;20011;-61
2023/01/18 09:17:50;;;;;;;;;;;;;;;1.41;77.92;98933.00;4204393;28;20375;-62
2023/01/18 09:19:53;;;;;;;;;;;;;;;1.42;78.25;98939.13;4205383;28;20450;-62
2023/01/18 09:21:55;;;;;;;;;;;;;;;1.44;78.27;98932.66;4203088;28;20023;-62
2023/01/18 09:23:58;;;;;;;;;;;;;;;1.47;78.17;98936.00;4204539;28;20014;-62
2023/01/18 09:26:01;;;;;;;;;;;;;;;1.49;78.13;98939.31;4203796;28;20674;-62
2023/01/18 09:28:03;;;;;;;;;;;;;;;1.52;77.88;98939.00;4203336;28;20022;-62
2023/01/18 09:30:06;;;;;;;;;;;;;;;1.54;77.70;98940.50;4203976;28;20376;-62
2023/01/18 09:32:08;;;;;;;;;;;;;;;1.55;77.57;98934.19;4202951;28;20011;-63
2023/01/18 09:34:12;;;;;;;;;;;;;;;1.58;77.12;98933.00;4204831;28;19956;-62
2023/01/18 09:36:14;;;;;;;;;;;;;;;1.60;77.38;98931.88;4204550;28;20022;-62
2023/01/18 09:38:16;;;;;;;;;;;;;;;1.63;77.22;98936.03;4203640;28;20022;-63
2023/01/18 09:40:19;;;;;;;;;;;;;;;1.65;77.09;98938.53;4202899;28;20023;-63
2023/01/18 09:42:21;;;;;;;;;;;;;;;1.67;77.01;98937.34;4202328;28;20058;-62
2023/01/18 09:44:25;;;;;;;;;;;;;;;1.69;77.04;98942.53;4203035;28;20047;-62
2023/01/18 09:46:27;;;;;;;;;;;;;;;1.72;76.74;98934.22;4203499;28;20397;-63
2023/01/18 09:48:29;;;;;;;;;;;;;;;1.73;76.84;98946.53;4203339;28;20035;-61
2023/01/18 09:50:33;;;;;;;;;;;;;;;1.74;76.85;98948.16;4203071;28;20043;-62
2023/01/18 09:52:38;;;;;;;;;;;;;;;1.74;76.71;98949.03;4202126;28;20027;-63
2023/01/18 09:54:41;;;;;;;;;;;;;;;1.76;76.38;98946.19;4203858;28;19925;-62
2023/01/18 09:56:44;;;;;;;;;;;;;;;1.79;76.11;98941.38;4203517;28;20012;-62
2023/01/18 09:58:51;;;;;;;;;;;;;;;1.80;75.90;98943.03;4203923;28;20043;-62
2023/01/18 10:00:53;;;;;;;;;;;;;;;1.82;76.00;98942.88;4203331;28;20043;-62
2023/01/18 10:02:59;;;;;;;;;;;;;;;1.83;75.83;98938.38;4202453;28;20010;-63
2023/01/18 10:05:01;;;;;;;;;;;;;;;1.84;75.81;98946.19;4203109;28;20369;-63
2023/01/18 10:07:05;;;;;;;;;;;;;;;1.85;75.88;98942.56;4202379;28;20026;-63
2023/01/18 10:09:10;;;;;;;;;;;;;;;1.88;75.73;98944.88;4202801;28;20011;-62
2023/01/18 10:11:15;;;;;;;;;;;;;;;1.89;75.86;98946.53;4202605;28;20023;-62
2023/01/18 10:13:23;;;;;;;;;;;;;;;1.90;75.96;98940.22;4203370;28;20023;-63
2023/01/18 10:15:25;;;;;;;;;;;;;;;1.93;75.91;98949.72;4203720;28;20385;-62
2023/01/18 10:17:29;;;;;;;;;;;;;;;1.93;75.51;98945.22;4202887;28;20028;-63
2023/01/18 10:19:31;;;;;;;;;;;;;;;1.93;75.54;98947.88;4202279;28;20016;-63
2023/01/18 10:21:37;;;;;;;;;;;;;;;1.94;75.65;98951.34;4203542;28;20015;-62
2023/01/18 10:23:41;;;;;;;;;;;;;;;1.95;75.65;98950.38;4201624;28;20449;-62
2023/01/18 10:25:44;;;;;;;;;;;;;;;1.94;75.44;98954.88;4203507;28;20376;-63
2023/01/18 10:27:53;;;;;;;;;;;;;;;1.95;75.52;98959.19;4202672;28;20019;-63
2023/01/18 10:29:59;;;;;;;;;;;;;;;1.95;75.41;98961.84;4203079;28;20008;-63
2023/01/18 10:32:01;;;;;;;;;;;;;;;1.98;75.31;98958.03;4201596;28;20142;-62
2023/01/18 10:34:04;;;;;;;;;;;;;;;1.99;75.24;98962.34;4203194;28;20019;-62
2023/01/18 10:36:06;;;;;;;;;;;;;;;1.99;75.38;98962.34;4204501;28;19932;-63
2023/01/18 10:38:09;;;;;;;;;;;;;;;1.99;75.26;98957.00;4202902;28;20086;-62
2023/01/18 10:40:13;;;;;;;;;;;;;;;2.00;75.40;98960.53;4203230;28;20011;-62
2023/01/18 10:42:17;;;;;;;;;;;;;;;2.00;75.31;98961.34;4202322;28;20015;-61
2023/01/18 10:44:20;;;;;;;;;;;;;;;1.99;75.42;98962.34;4203427;28;20404;-62
2023/01/18 10:46:22;;;;;;;;;;;;;;;1.98;75.41;98960.69;4203338;28;20019;-62
2023/01/18 10:48:27;;;;;;;;;;;;;;;1.98;75.22;98960.69;4202132;28;20006;-63
2023/01/18 10:50:34;;;;;;;;;;;;;;;2.00;75.59;98963.19;4202029;28;20062;-62
2023/01/18 10:52:36;;;;;;;;;;;;;;;2.01;75.54;98967.50;4201803;28;20016;-62
2023/01/18 10:54:39;;;;;;;;;;;;;;;2.01;75.54;98971.03;4202402;28;20010;-62
2023/01/18 10:56:42;;;;;;;;;;;;;;;2.02;75.32;98966.50;4202118;28;19943;-63
2023/01/18 10:58:45;;;;;;;;;;;;;;;2.01;75.25;98973.69;4203443;28;20031;-62
2023/01/18 11:00:52;;;;;;;;;;;;;;;2.02;75.09;98969.19;4202832;28;20027;-63
2023/01/18 11:02:54;;;;;;;;;;;;;;;2.02;74.94;98966.50;4202490;28;20027;-63
2023/01/18 11:04:58;;;;;;;;;;;;;;;2.03;75.03;98968.19;4202792;28;20023;-62
2023/01/18 11:07:00;;;;;;;;;;;;;;;2.02;75.14;98967.34;4212900;28;20034;-62
2023/01/18 11:09:02;;;;;;;;;;;;;;;2.03;75.21;98968.19;4187239;28;20020;-62
2023/01/18 11:11:05;;;;;;;;;;;;;;;2.04;75.35;98968.03;4186151;28;20019;-62
2023/01/18 11:13:25;;;;;;;;;;;;;;;2.05;74.94;98971.50;4201192;28;20015;-63
2023/01/18 11:15:28;;;;;;;;;;;;;;;2.05;75.25;98971.50;4186508;28;20596;-62
2023/01/18 11:17:31;;;;;;;;;;;;;;;2.04;75.16;98976.00;4192851;28;19932;-62
2023/01/18 11:19:33;;;;;;;;;;;;;;;2.07;75.30;98988.16;4202678;28;20027;-60